Murdock, Nebraska
Current Conditions -  °F | °C
As of 7:15 PM on Wednesday 22 Oct 2014 (Local Time) from KPMV Reporting Station
Broken Clouds Broken Clouds  
Wind Chill: 69°   Ceiling: 12000
Heat Index: 69°   Visibility: 10mi
Dew Point: 52°   Wind: 10mph
Humidity: 55%   Direction: 150°SSE
Pressure: 30.02"   Gusts: NA
Location:  40.93°N, 96.28°W
Report Text: KPMV 230015Z AUTO 15009KT 10SM SCT085 BKN120 21/11 A3002 RMK AO2 T02050112
Loading
Personal Weather Stations






























Interactive Weather Map
Tropical Storm Tracking
New forecast layout! Learn more

10-Day Weather Forecast

Advertisements
Track Severe Weather on mobile